• Join FlightAware (Why Join?)
  • Login
  • US Flag 
12:34PM EDT


 

Airport Tracker/Info


-or-


 

Live Flight TrackerFlight Track Log ✈ FDX1254 ✈ 23-Apr-2012 ✈ KPVD - KFWA

Flight Track Log - Related Links

Times and Time Zones

All times are in EDT time to prevent confusion due to time zone crossing. See the FDX1254 flight status page for this flight to view local times or setup timezone preferences in your user account.

Time Position Orientation Groundspeed Altitude Reporting Facility
EDT Latitude Longitude Course Direction KTS MPH feet Rate Location/Type
08:51PM 41.7122 -71.4333 267° West 143 165 700  Level Boston Center
08:52PM 41.7089 -71.5086 314° West 236 272 2,800 3,120 Climbing Boston Center
08:53PM 41.7636 -71.5856 317° Northwest 270 311 6,800 3,720 Climbing Boston Center
08:54PM 41.8247 -71.6628 329° Northwest 295 339 10,200 2,400 Climbing Boston Center
08:55PM 41.9064 -71.7289 331° Northwest 348 400 11,600 2,040 Climbing Boston Center
08:56PM 42.0214 -71.8142 329° Northwest 417 480 14,400 2,580 Climbing Boston Center
08:57PM 42.1197 -71.8942 318° Northwest 454 522 16,800 2,160 Climbing Boston Center
08:58PM 42.2058 -72.0000 280° West 468 539 18,800 2,100 Climbing Boston Center
08:59PM 42.2292 -72.1736 276° West 427 491 21,000 2,040 Climbing Boston Center
09:00PM 42.2419 -72.3447 276° West 437 503 22,900 1,980 Climbing Boston Center
09:01PM 42.2567 -72.5214 276° West 463 533 25,000 1,860 Climbing Boston Center
09:02PM 42.2708 -72.6981 276° West 474 545 26,700 1,560 Climbing Boston Center
09:03PM 42.2850 -72.8806 268° West 486 559 28,200 1,500 Climbing Boston Center
09:04PM 42.2800 -73.0686 264° West 492 566 29,700 1,680 Climbing Boston Center
09:05PM 42.2639 -73.2650 264° West 492 566 31,600 1,860 Climbing Boston Center
09:06PM 42.2525 -73.4161 262° West 487 560 33,500 1,860 Climbing Boston Center
09:08PM 42.2236 -73.7069 263° West 465 535 36,400 1,860 Climbing FlightAware ADS-B
09:08PM 42.2136 -73.8133 263° West 463 533 37,600 1,560 Climbing FlightAware ADS-B
09:09PM 42.2037 -73.9219 263° West 463 533 38,400 1,320 Climbing FlightAware ADS-B
09:09PM 42.1947 -74.0163 262° West 463 533 39,200 1,320 Climbing FlightAware ADS-B
09:10PM 42.1855 -74.1101 263° West 461 531 39,900 480 Climbing FlightAware ADS-B
09:11PM 42.1709 -74.2621 262° West 460 529 39,900  Level FlightAware ADS-B
09:11PM 42.1627 -74.3456 262° West 452 520 39,900  Level FlightAware ADS-B
09:12PM 42.1543 -74.4292 262° West 453 521 39,900  Level FlightAware ADS-B
09:12PM 42.1455 -74.5189 262° West 455 524 39,900  Level FlightAware ADS-B
09:13PM 42.1370 -74.6029 262° West 453 521 39,900  Level FlightAware ADS-B
09:13PM 42.1284 -74.6892 262° West 452 520 39,900  Level FlightAware ADS-B
09:14PM 42.1198 -74.7728 262° West 452 520 39,900  Level FlightAware ADS-B
09:14PM 42.1108 -74.8591 262° West 453 521 39,900  Level FlightAware ADS-B
09:15PM 42.1013 -74.9514 262° West 453 521 39,900  Level FlightAware ADS-B
09:16PM 42.0925 -75.0380 266° West 454 522 39,900  Level FlightAware ADS-B
09:16PM 42.0896 -75.0891 272° West 462 532 39,900  Level FlightAware ADS-B
09:16PM 42.0922 -75.1793 273° West 470 541 39,900  Level FlightAware ADS-B
09:17PM 42.0954 -75.2728 272° West 471 542 39,900  Level FlightAware ADS-B
09:17PM 42.0973 -75.3603 267° West 471 542 39,900  Level FlightAware ADS-B
09:18PM 42.0924 -75.4795 265° West 468 539 39,900  Level FlightAware ADS-B
09:19PM 42.0866 -75.5690 264° West 467 537 39,900  Level FlightAware ADS-B
09:22PM 42.0489 -76.0778 264° West 465 535 39,900  Level Cleveland Center
09:23PM 42.0305 -76.3121 264° West 470 541 39,900  Level FlightAware ADS-B
09:24PM 42.0201 -76.4460 264° West 472 543 39,900  Level FlightAware ADS-B
09:24PM 42.0123 -76.5418 264° West 471 542 39,900  Level FlightAware ADS-B
09:25PM 41.9973 -76.7273 264° West 469 540 39,900  Level FlightAware ADS-B
09:27PM 41.9811 -76.9292 264° West 471 542 39,900  Level Cleveland Center
09:28PM 41.9678 -77.1033 263° West 471 542 39,900  Level Cleveland Center
09:29PM 41.9506 -77.2942 263° West 471 542 39,900  Level Cleveland Center
09:30PM 41.9344 -77.4653 263° West 471 542 39,900  Level Cleveland Center
09:31PM 41.9200 -77.6306 263° West 453 521 39,900  Level Cleveland Center
09:32PM 41.9053 -77.7958 262° West 447 514 39,900  Level Cleveland Center
09:33PM 41.8900 -77.9417 263° West 447 514 39,900  Level Cleveland Center
09:34PM 41.8750 -78.1122 262° West 452 520 39,900  Level Cleveland Center
09:35PM 41.8578 -78.2831 263° West 458 527 39,900  Level Cleveland Center
09:36PM 41.8422 -78.4536 263° West 464 534 39,900  Level Cleveland Center
09:37PM 41.8267 -78.6269 262° West 464 534 39,900  Level Cleveland Center
09:38PM 41.8086 -78.7947 263° West 464 534 39,900  Level Cleveland Center
09:39PM 41.7922 -78.9678 263° West 470 541 39,900  Level Cleveland Center
09:40PM 41.7758 -79.1353 262° West 470 541 39,900  Level Cleveland Center
09:41PM 41.7569 -79.3056 261° West 465 535 39,900  Level Cleveland Center
09:42PM 41.7378 -79.4756 261° West 465 535 39,900  Level Cleveland Center
09:43PM 41.7167 -79.6625 262° West 465 535 39,900  Level Cleveland Center
09:44PM 41.6992 -79.8350 261° West 465 535 39,900  Level Cleveland Center
09:45PM 41.6792 -79.9994 262° West 465 535 39,900  Level Cleveland Center
09:46PM 41.6653 -80.1356 262° West 465 535 39,900  Level Cleveland Center
09:47PM 41.6450 -80.3247 261° West 465 535 39,900  Level Cleveland Center
09:48PM 41.6222 -80.5108 261° West 465 535 39,900  Level Cleveland Center
09:49PM 41.6014 -80.6803 261° West 465 535 39,900  Level Cleveland Center
09:50PM 41.5803 -80.8553 261° West 470 541 39,900  Level Cleveland Center
09:51PM 41.5631 -81.0078 260° West 470 541 39,900  Level Cleveland Center
09:52PM 41.5414 -81.1767 261° West 470 541 39,900  Level Cleveland Center
09:53PM 41.5197 -81.3514 261° West 470 541 39,900  Level Cleveland Center
09:54PM 41.4994 -81.5231 262° West 470 541 39,900  Level Cleveland Center
09:55PM 41.4814 -81.6917 259° West 470 541 39,900  Level Cleveland Center
09:56PM 41.4544 -81.8825 260° West 470 541 39,900  Level Cleveland Center
09:57PM 41.4314 -82.0536 260° West 470 541 39,900  Level Cleveland Center
09:58PM 41.4083 -82.2222 261° West 470 541 39,900  Level Cleveland Center
09:59PM 41.3894 -82.3739 259° West 463 533 39,900 -540 Level Cleveland Center
10:00PM 41.3656 -82.5447 260° West 468 539 38,900 -1,020 Descending Cleveland Center
10:01PM 41.3439 -82.7100 260° West 463 533 37,900 -1,020 Descending Cleveland Center
10:02PM 41.3197 -82.8836 259° West 468 539 36,900 -960 Descending Cleveland Center
10:03PM 41.2953 -83.0539 259° West 468 539 36,000 -900 Descending Cleveland Center
10:04PM 41.2681 -83.2436 260° West 468 539 35,200 -1,680 Descending Cleveland Center
10:05PM 41.2453 -83.4111 259° West 468 539 32,700 -3,180 Descending Cleveland Center
10:06PM 41.2200 -83.5839 260° West 468 539 28,900 -3,600 Descending Cleveland Center
10:07PM 41.1992 -83.7403 259° West 468 539 25,600 -3,240 Descending Cleveland Center
10:08PM 41.1758 -83.8992 258° West 468 539 22,500 -3,120 Descending Cleveland Center
10:09PM 41.1506 -84.0553 260° West 450 518 19,400 -3,180 Descending Cleveland Center
10:10PM 41.1281 -84.2161 259° West 428 493 16,300 -3,180 Descending Chicago Center
10:11PM 41.1072 -84.3556 258° West 428 493 13,200 -2,580 Descending Chicago Center
10:12PM 41.0861 -84.4922 259° West 405 466 11,200 -1,380 Descending Chicago Center
10:13PM 41.0683 -84.6147 250° West 356 410 10,500 -660 Descending Chicago Center
10:14PM 41.0411 -84.7161 240° Southwest 313 360 9,900 -1,260 Descending Chicago Center
10:15PM 41.0008 -84.8069 242° Southwest 294 338 8,000 -1,560 Descending Chicago Center
10:16PM 40.9686 -84.8861 248° West 261 300 6,800 -1,260 Descending Chicago Center
10:17PM 40.9464 -84.9592 249° West 246 283 5,500 -1,260 Descending Chicago Center
10:18PM 40.9281 -85.0236 258° West 214 246 4,300 -1,440 Descending Chicago Center
10:19PM 40.9181 -85.0875 303° West 195 224 2,700 -1,200 Descending Chicago Center
10:20PM 40.9361 -85.1250 303° West 148 170 2,000 -720 Descending Chicago Center